sensor_id;sensor_type;location;lat;lon;timestamp;P1;durP1;ratioP1;P2;durP2;ratioP2
19137;SDS011;68178;52.188;5.598;2023-04-01T00:02:25;26.08;;;17.75;;
19137;SDS011;68178;52.188;5.598;2023-04-01T00:04:51;26.05;;;17.20;;
19137;SDS011;68178;52.188;5.598;2023-04-01T00:07:17;33.63;;;19.75;;
19137;SDS011;68178;52.188;5.598;2023-04-01T00:09:43;28.88;;;18.50;;
19137;SDS011;68178;52.188;5.598;2023-04-01T00:12:09;29.75;;;18.75;;
19137;SDS011;68178;52.188;5.598;2023-04-01T00:14:35;30.98;;;19.20;;
19137;SDS011;68178;52.188;5.598;2023-04-01T00:17:02;30.35;;;18.88;;
19137;SDS011;68178;52.188;5.598;2023-04-01T00:19:28;33.00;;;18.27;;
19137;SDS011;68178;52.188;5.598;2023-04-01T00:21:54;31.15;;;18.52;;
19137;SDS011;68178;52.188;5.598;2023-04-01T00:24:20;35.05;;;19.08;;
19137;SDS011;68178;52.188;5.598;2023-04-01T00:26:46;31.52;;;19.70;;
19137;SDS011;68178;52.188;5.598;2023-04-01T00:29:12;29.55;;;18.05;;
19137;SDS011;68178;52.188;5.598;2023-04-01T00:31:41;39.03;;;21.10;;
19137;SDS011;68178;52.188;5.598;2023-04-01T00:34:07;33.53;;;19.40;;
19137;SDS011;68178;52.188;5.598;2023-04-01T00:36:33;41.40;;;22.15;;
19137;SDS011;68178;52.188;5.598;2023-04-01T00:38:59;37.53;;;21.33;;
19137;SDS011;68178;52.188;5.598;2023-04-01T00:41:25;40.97;;;22.27;;
19137;SDS011;68178;52.188;5.598;2023-04-01T00:44:11;40.42;;;22.08;;
19137;SDS011;68178;52.188;5.598;2023-04-01T00:46:38;47.78;;;22.60;;
19137;SDS011;68178;52.188;5.598;2023-04-01T00:49:04;42.00;;;22.58;;
19137;SDS011;68178;52.188;5.598;2023-04-01T00:51:30;55.92;;;23.80;;
19137;SDS011;68178;52.188;5.598;2023-04-01T00:53:58;46.92;;;23.17;;
19137;SDS011;68178;52.188;5.598;2023-04-01T00:56:34;48.25;;;23.95;;
19137;SDS011;68178;52.188;5.598;2023-04-01T00:59:02;47.47;;;24.20;;
19137;SDS011;68178;52.188;5.598;2023-04-01T01:01:30;52.33;;;24.75;;
19137;SDS011;68178;52.188;5.598;2023-04-01T01:03:56;45.38;;;24.00;;
19137;SDS011;68178;52.188;5.598;2023-04-01T01:11:43;40.08;;;22.42;;
19137;SDS011;68178;52.188;5.598;2023-04-01T01:16:50;50.63;;;23.23;;
19137;SDS011;68178;52.188;5.598;2023-04-01T01:19:28;53.40;;;24.02;;
19137;SDS011;68178;52.188;5.598;2023-04-01T01:22:15;50.88;;;24.45;;
19137;SDS011;68178;52.188;5.598;2023-04-01T01:25:00;51.70;;;27.30;;
19137;SDS011;68178;52.188;5.598;2023-04-01T01:27:31;47.67;;;24.30;;
19137;SDS011;68178;52.188;5.598;2023-04-01T01:32:44;46.55;;;24.02;;
19137;SDS011;68178;52.188;5.598;2023-04-01T01:37:47;55.35;;;26.42;;
19137;SDS011;68178;52.188;5.598;2023-04-01T01:40:15;61.00;;;29.55;;
19137;SDS011;68178;52.188;5.598;2023-04-01T01:42:49;62.95;;;26.67;;
19137;SDS011;68178;52.188;5.598;2023-04-01T01:45:16;63.20;;;29.40;;
19137;SDS011;68178;52.188;5.598;2023-04-01T01:47:44;61.20;;;29.58;;
19137;SDS011;68178;52.188;5.598;2023-04-01T01:50:11;61.65;;;28.17;;
19137;SDS011;68178;52.188;5.598;2023-04-01T01:52:37;62.33;;;28.48;;
19137;SDS011;68178;52.188;5.598;2023-04-01T01:55:22;61.15;;;28.10;;
19137;SDS011;68178;52.188;5.598;2023-04-01T01:57:48;57.05;;;29.10;;
19137;SDS011;68178;52.188;5.598;2023-04-01T02:00:15;57.58;;;28.80;;
19137;SDS011;68178;52.188;5.598;2023-04-01T02:02:42;60.25;;;30.38;;
19137;SDS011;68178;52.188;5.598;2023-04-01T02:05:10;54.97;;;28.67;;
19137;SDS011;68178;52.188;5.598;2023-04-01T02:07:37;53.65;;;27.65;;
19137;SDS011;68178;52.188;5.598;2023-04-01T02:10:05;44.92;;;24.50;;
19137;SDS011;68178;52.188;5.598;2023-04-01T02:12:31;41.85;;;23.92;;
19137;SDS011;68178;52.188;5.598;2023-04-01T02:15:03;41.35;;;21.30;;
19137;SDS011;68178;52.188;5.598;2023-04-01T02:17:30;38.50;;;19.02;;
19137;SDS011;68178;52.188;5.598;2023-04-01T02:19:59;30.02;;;17.48;;
19137;SDS011;68178;52.188;5.598;2023-04-01T02:22:29;28.40;;;17.27;;
19137;SDS011;68178;52.188;5.598;2023-04-01T02:25:05;32.88;;;16.30;;
19137;SDS011;68178;52.188;5.598;2023-04-01T02:27:31;27.98;;;17.27;;
19137;SDS011;68178;52.188;5.598;2023-04-01T02:29:58;33.85;;;19.40;;
19137;SDS011;68178;52.188;5.598;2023-04-01T02:32:24;31.90;;;20.23;;
19137;SDS011;68178;52.188;5.598;2023-04-01T02:34:50;28.15;;;17.73;;
19137;SDS011;68178;52.188;5.598;2023-04-01T02:37:16;30.90;;;17.60;;
19137;SDS011;68178;52.188;5.598;2023-04-01T02:39:43;26.30;;;15.40;;
19137;SDS011;68178;52.188;5.598;2023-04-01T02:42:09;24.00;;;14.23;;
19137;SDS011;68178;52.188;5.598;2023-04-01T02:44:35;21.00;;;13.15;;
19137;SDS011;68178;52.188;5.598;2023-04-01T02:47:01;24.10;;;13.52;;
19137;SDS011;68178;52.188;5.598;2023-04-01T02:49:27;24.08;;;13.98;;
19137;SDS011;68178;52.188;5.598;2023-04-01T02:51:53;26.25;;;14.70;;
19137;SDS011;68178;52.188;5.598;2023-04-01T02:54:19;18.55;;;13.40;;
19137;SDS011;68178;52.188;5.598;2023-04-01T02:56:45;27.58;;;15.40;;
19137;SDS011;68178;52.188;5.598;2023-04-01T02:59:11;25.15;;;15.35;;
19137;SDS011;68178;52.188;5.598;2023-04-01T03:01:37;23.67;;;15.63;;
19137;SDS011;68178;52.188;5.598;2023-04-01T03:04:04;22.52;;;15.65;;
19137;SDS011;68178;52.188;5.598;2023-04-01T03:06:30;27.08;;;15.55;;
19137;SDS011;68178;52.188;5.598;2023-04-01T03:08:56;23.58;;;15.98;;
19137;SDS011;68178;52.188;5.598;2023-04-01T03:11:22;26.13;;;16.50;;
19137;SDS011;68178;52.188;5.598;2023-04-01T03:13:48;23.67;;;16.10;;
19137;SDS011;68178;52.188;5.598;2023-04-01T03:16:14;27.58;;;17.23;;
19137;SDS011;68178;52.188;5.598;2023-04-01T03:18:40;29.20;;;16.83;;
19137;SDS011;68178;52.188;5.598;2023-04-01T03:21:39;27.25;;;16.75;;
19137;SDS011;68178;52.188;5.598;2023-04-01T03:23:58;28.60;;;16.58;;
19137;SDS011;68178;52.188;5.598;2023-04-01T03:26:24;28.55;;;18.00;;
19137;SDS011;68178;52.188;5.598;2023-04-01T03:28:52;23.92;;;15.75;;
19137;SDS011;68178;52.188;5.598;2023-04-01T03:31:18;26.17;;;15.32;;
19137;SDS011;68178;52.188;5.598;2023-04-01T03:33:44;26.35;;;16.58;;
19137;SDS011;68178;52.188;5.598;2023-04-01T03:36:10;30.08;;;16.30;;
19137;SDS011;68178;52.188;5.598;2023-04-01T03:38:37;27.17;;;15.45;;
19137;SDS011;68178;52.188;5.598;2023-04-01T03:41:03;23.90;;;15.23;;
19137;SDS011;68178;52.188;5.598;2023-04-01T03:43:30;25.30;;;16.33;;
19137;SDS011;68178;52.188;5.598;2023-04-01T03:45:55;24.27;;;14.38;;
19137;SDS011;68178;52.188;5.598;2023-04-01T03:48:25;25.70;;;15.63;;
19137;SDS011;68178;52.188;5.598;2023-04-01T03:50:51;29.00;;;16.27;;
19137;SDS011;68178;52.188;5.598;2023-04-01T03:53:17;27.77;;;15.43;;
19137;SDS011;68178;52.188;5.598;2023-04-01T03:55:46;23.48;;;15.35;;
19137;SDS011;68178;52.188;5.598;2023-04-01T03:58:12;24.13;;;14.57;;
19137;SDS011;68178;52.188;5.598;2023-04-01T04:00:38;28.25;;;15.88;;
19137;SDS011;68178;52.188;5.598;2023-04-01T04:03:05;26.30;;;15.30;;
19137;SDS011;68178;52.188;5.598;2023-04-01T04:05:37;26.77;;;15.30;;
19137;SDS011;68178;52.188;5.598;2023-04-01T04:08:03;28.45;;;16.20;;
19137;SDS011;68178;52.188;5.598;2023-04-01T04:10:29;31.38;;;16.60;;
19137;SDS011;68178;52.188;5.598;2023-04-01T04:12:55;29.48;;;16.23;;
19137;SDS011;68178;52.188;5.598;2023-04-01T04:15:21;33.47;;;16.58;;
19137;SDS011;68178;52.188;5.598;2023-04-01T04:17:47;38.10;;;18.45;;
19137;SDS011;68178;52.188;5.598;2023-04-01T04:20:14;36.10;;;17.90;;
19137;SDS011;68178;52.188;5.598;2023-04-01T04:22:40;37.80;;;18.45;;
19137;SDS011;68178;52.188;5.598;2023-04-01T04:25:06;33.92;;;16.77;;
19137;SDS011;68178;52.188;5.598;2023-04-01T04:27:32;33.03;;;18.50;;
19137;SDS011;68178;52.188;5.598;2023-04-01T04:29:58;37.53;;;18.80;;
19137;SDS011;68178;52.188;5.598;2023-04-01T04:32:24;37.22;;;17.88;;
19137;SDS011;68178;52.188;5.598;2023-04-01T04:34:50;43.42;;;19.38;;
19137;SDS011;68178;52.188;5.598;2023-04-01T04:37:16;39.10;;;18.15;;
19137;SDS011;68178;52.188;5.598;2023-04-01T04:39:42;42.83;;;17.73;;
19137;SDS011;68178;52.188;5.598;2023-04-01T04:42:08;44.38;;;18.15;;
19137;SDS011;68178;52.188;5.598;2023-04-01T04:44:34;41.85;;;17.98;;
19137;SDS011;68178;52.188;5.598;2023-04-01T04:47:03;45.88;;;18.40;;
19137;SDS011;68178;52.188;5.598;2023-04-01T04:49:29;52.30;;;18.75;;
19137;SDS011;68178;52.188;5.598;2023-04-01T04:51:55;45.88;;;18.05;;
19137;SDS011;68178;52.188;5.598;2023-04-01T04:54:21;48.00;;;18.15;;
19137;SDS011;68178;52.188;5.598;2023-04-01T04:56:47;43.67;;;18.05;;
19137;SDS011;68178;52.188;5.598;2023-04-01T04:59:13;48.20;;;17.25;;
19137;SDS011;68178;52.188;5.598;2023-04-01T05:01:39;51.17;;;18.27;;
19137;SDS011;68178;52.188;5.598;2023-04-01T05:04:05;57.30;;;19.13;;
19137;SDS011;68178;52.188;5.598;2023-04-01T05:06:31;51.25;;;19.00;;
19137;SDS011;68178;52.188;5.598;2023-04-01T05:08:56;55.13;;;17.77;;
19137;SDS011;68178;52.188;5.598;2023-04-01T05:11:23;54.97;;;19.00;;
19137;SDS011;68178;52.188;5.598;2023-04-01T05:13:50;54.90;;;18.20;;
19137;SDS011;68178;52.188;5.598;2023-04-01T05:16:22;52.85;;;18.77;;
19137;SDS011;68178;52.188;5.598;2023-04-01T05:18:48;65.03;;;19.70;;
19137;SDS011;68178;52.188;5.598;2023-04-01T05:21:14;63.03;;;19.17;;
19137;SDS011;68178;52.188;5.598;2023-04-01T05:23:47;60.15;;;19.50;;
19137;SDS011;68178;52.188;5.598;2023-04-01T05:26:13;73.38;;;21.25;;
19137;SDS011;68178;52.188;5.598;2023-04-01T05:28:40;66.70;;;21.48;;
19137;SDS011;68178;52.188;5.598;2023-04-01T05:31:06;65.45;;;22.00;;
19137;SDS011;68178;52.188;5.598;2023-04-01T05:33:32;66.70;;;20.77;;
19137;SDS011;68178;52.188;5.598;2023-04-01T05:36:05;64.97;;;21.10;;
19137;SDS011;68178;52.188;5.598;2023-04-01T05:38:31;66.65;;;21.25;;
19137;SDS011;68178;52.188;5.598;2023-04-01T05:41:00;65.63;;;20.92;;
19137;SDS011;68178;52.188;5.598;2023-04-01T05:43:26;70.68;;;22.40;;
19137;SDS011;68178;52.188;5.598;2023-04-01T05:45:52;71.25;;;21.60;;
19137;SDS011;68178;52.188;5.598;2023-04-01T05:48:18;72.25;;;22.42;;
19137;SDS011;68178;52.188;5.598;2023-04-01T05:50:44;73.63;;;22.13;;
19137;SDS011;68178;52.188;5.598;2023-04-01T05:53:10;81.88;;;23.27;;
19137;SDS011;68178;52.188;5.598;2023-04-01T05:55:36;69.95;;;22.23;;
19137;SDS011;68178;52.188;5.598;2023-04-01T05:58:02;73.53;;;22.83;;
19137;SDS011;68178;52.188;5.598;2023-04-01T06:00:31;76.80;;;22.45;;
19137;SDS011;68178;52.188;5.598;2023-04-01T06:03:00;85.35;;;23.52;;
19137;SDS011;68178;52.188;5.598;2023-04-01T06:05:27;60.83;;;20.48;;
19137;SDS011;68178;52.188;5.598;2023-04-01T06:07:55;63.95;;;20.25;;
19137;SDS011;68178;52.188;5.598;2023-04-01T06:10:23;69.95;;;21.67;;
19137;SDS011;68178;52.188;5.598;2023-04-01T06:13:07;54.30;;;20.20;;
19137;SDS011;68178;52.188;5.598;2023-04-01T06:15:40;55.85;;;19.85;;
19137;SDS011;68178;52.188;5.598;2023-04-01T06:20:55;45.22;;;17.25;;
19137;SDS011;68178;52.188;5.598;2023-04-01T06:23:32;40.72;;;15.85;;
19137;SDS011;68178;52.188;5.598;2023-04-01T06:26:12;35.08;;;13.90;;
19137;SDS011;68178;52.188;5.598;2023-04-01T06:31:22;33.20;;;13.75;;
19137;SDS011;68178;52.188;5.598;2023-04-01T06:36:40;23.20;;;10.68;;
19137;SDS011;68178;52.188;5.598;2023-04-01T06:44:23;25.00;;;9.13;;
19137;SDS011;68178;52.188;5.598;2023-04-01T06:54:44;26.45;;;9.70;;
19137;SDS011;68178;52.188;5.598;2023-04-01T06:57:24;24.02;;;9.68;;
19137;SDS011;68178;52.188;5.598;2023-04-01T06:59:54;23.80;;;9.32;;
19137;SDS011;68178;52.188;5.598;2023-04-01T07:02:24;17.50;;;7.80;;
19137;SDS011;68178;52.188;5.598;2023-04-01T07:04:52;20.35;;;8.18;;
19137;SDS011;68178;52.188;5.598;2023-04-01T07:09:52;17.20;;;6.38;;
19137;SDS011;68178;52.188;5.598;2023-04-01T07:12:22;13.38;;;6.05;;
19137;SDS011;68178;52.188;5.598;2023-04-01T07:14:53;13.82;;;6.05;;
19137;SDS011;68178;52.188;5.598;2023-04-01T07:17:22;14.77;;;6.05;;
19137;SDS011;68178;52.188;5.598;2023-04-01T07:19:50;8.38;;;4.40;;
19137;SDS011;68178;52.188;5.598;2023-04-01T07:22:25;5.60;;;2.92;;
19137;SDS011;68178;52.188;5.598;2023-04-01T07:24:52;3.92;;;2.20;;
19137;SDS011;68178;52.188;5.598;2023-04-01T07:27:19;3.90;;;2.03;;
19137;SDS011;68178;52.188;5.598;2023-04-01T07:29:45;2.53;;;1.77;;
19137;SDS011;68178;52.188;5.598;2023-04-01T07:37:10;4.20;;;2.13;;
19137;SDS011;68178;52.188;5.598;2023-04-01T07:39:42;3.00;;;2.40;;
19137;SDS011;68178;52.188;5.598;2023-04-01T07:44:54;3.80;;;2.85;;
19137;SDS011;68178;52.188;5.598;2023-04-01T07:50:27;4.60;;;2.72;;
19137;SDS011;68178;52.188;5.598;2023-04-01T07:55:40;4.68;;;3.40;;
19137;SDS011;68178;52.188;5.598;2023-04-01T08:00:40;4.10;;;3.28;;
19137;SDS011;68178;52.188;5.598;2023-04-01T08:05:56;3.35;;;2.90;;
19137;SDS011;68178;52.188;5.598;2023-04-01T08:08:29;2.75;;;2.30;;
19137;SDS011;68178;52.188;5.598;2023-04-01T08:16:03;4.97;;;2.72;;
19137;SDS011;68178;52.188;5.598;2023-04-01T08:18:38;3.20;;;2.80;;
19137;SDS011;68178;52.188;5.598;2023-04-01T08:21:08;3.88;;;3.47;;
19137;SDS011;68178;52.188;5.598;2023-04-01T08:23:37;3.90;;;2.95;;
19137;SDS011;68178;52.188;5.598;2023-04-01T08:26:05;3.95;;;2.70;;
19137;SDS011;68178;52.188;5.598;2023-04-01T08:28:34;6.55;;;4.70;;
19137;SDS011;68178;52.188;5.598;2023-04-01T08:33:37;5.38;;;3.00;;
19137;SDS011;68178;52.188;5.598;2023-04-01T08:36:08;5.03;;;3.40;;
19137;SDS011;68178;52.188;5.598;2023-04-01T08:41:25;3.00;;;2.70;;
19137;SDS011;68178;52.188;5.598;2023-04-01T08:49:12;3.33;;;3.03;;
19137;SDS011;68178;52.188;5.598;2023-04-01T08:56:47;5.30;;;3.95;;
19137;SDS011;68178;52.188;5.598;2023-04-01T09:10:04;9.57;;;5.60;;
19137;SDS011;68178;52.188;5.598;2023-04-01T09:12:39;7.95;;;5.88;;
19137;SDS011;68178;52.188;5.598;2023-04-01T09:15:20;6.85;;;5.13;;
19137;SDS011;68178;52.188;5.598;2023-04-01T09:18:12;8.60;;;5.72;;
19137;SDS011;68178;52.188;5.598;2023-04-01T09:26:22;7.75;;;6.57;;
19137;SDS011;68178;52.188;5.598;2023-04-01T09:34:12;9.98;;;7.72;;
19137;SDS011;68178;52.188;5.598;2023-04-01T09:36:44;8.02;;;7.07;;
19137;SDS011;68178;52.188;5.598;2023-04-01T09:41:49;8.50;;;7.68;;
19137;SDS011;68178;52.188;5.598;2023-04-01T09:44:19;8.68;;;7.75;;
19137;SDS011;68178;52.188;5.598;2023-04-01T10:13:30;5.72;;;5.18;;
19137;SDS011;68178;52.188;5.598;2023-04-01T10:18:50;6.35;;;5.75;;
19137;SDS011;68178;52.188;5.598;2023-04-01T10:34:28;7.22;;;6.18;;
19137;SDS011;68178;52.188;5.598;2023-04-01T10:58:35;4.75;;;4.25;;
19137;SDS011;68178;52.188;5.598;2023-04-01T11:01:27;5.70;;;4.80;;
19137;SDS011;68178;52.188;5.598;2023-04-01T11:09:32;3.40;;;3.10;;
19137;SDS011;68178;52.188;5.598;2023-04-01T11:12:29;4.18;;;3.47;;
19137;SDS011;68178;52.188;5.598;2023-04-01T11:18:00;5.03;;;4.38;;
19137;SDS011;68178;52.188;5.598;2023-04-01T11:30:41;5.05;;;4.55;;
19137;SDS011;68178;52.188;5.598;2023-04-01T11:33:15;5.00;;;4.50;;
19137;SDS011;68178;52.188;5.598;2023-04-01T11:40:45;4.97;;;4.47;;
19137;SDS011;68178;52.188;5.598;2023-04-01T11:43:20;5.03;;;4.53;;
19137;SDS011;68178;52.188;5.598;2023-04-01T11:51:04;5.45;;;4.95;;
19137;SDS011;68178;52.188;5.598;2023-04-01T12:15:16;5.88;;;5.25;;
19137;SDS011;68178;52.188;5.598;2023-04-01T12:17:53;5.28;;;4.78;;
19137;SDS011;68178;52.188;5.598;2023-04-01T12:33:56;5.90;;;5.40;;
19137;SDS011;68178;52.188;5.598;2023-04-01T12:39:00;6.07;;;5.47;;
19137;SDS011;68178;52.188;5.598;2023-04-01T12:44:26;5.10;;;4.60;;
19137;SDS011;68178;52.188;5.598;2023-04-01T12:52:22;4.90;;;4.50;;
19137;SDS011;68178;52.188;5.598;2023-04-01T13:05:15;6.07;;;5.47;;
19137;SDS011;68178;52.188;5.598;2023-04-01T13:15:26;6.22;;;5.57;;
19137;SDS011;68178;52.188;5.598;2023-04-01T13:17:58;5.60;;;5.00;;
19137;SDS011;68178;52.188;5.598;2023-04-01T13:23:50;7.40;;;6.65;;
19137;SDS011;68178;52.188;5.598;2023-04-01T13:26:22;8.55;;;6.55;;
19137;SDS011;68178;52.188;5.598;2023-04-01T13:28:59;11.05;;;8.65;;
19137;SDS011;68178;52.188;5.598;2023-04-01T13:42:05;9.05;;;7.40;;
19137;SDS011;68178;52.188;5.598;2023-04-01T13:44:41;11.68;;;7.70;;
19137;SDS011;68178;52.188;5.598;2023-04-01T13:47:15;10.52;;;8.13;;
19137;SDS011;68178;52.188;5.598;2023-04-01T13:57:36;19.10;;;13.30;;
19137;SDS011;68178;52.188;5.598;2023-04-01T14:13:50;8.05;;;6.78;;
19137;SDS011;68178;52.188;5.598;2023-04-01T14:18:47;8.07;;;6.97;;
19137;SDS011;68178;52.188;5.598;2023-04-01T14:29:04;7.75;;;6.95;;
19137;SDS011;68178;52.188;5.598;2023-04-01T14:34:27;11.02;;;8.60;;
19137;SDS011;68178;52.188;5.598;2023-04-01T14:37:15;8.93;;;7.72;;
19137;SDS011;68178;52.188;5.598;2023-04-01T14:39:59;9.40;;;7.95;;
19137;SDS011;68178;52.188;5.598;2023-04-01T14:47:43;8.23;;;7.43;;
19137;SDS011;68178;52.188;5.598;2023-04-01T14:50:19;9.05;;;7.75;;
19137;SDS011;68178;52.188;5.598;2023-04-01T14:52:49;7.65;;;6.85;;
19137;SDS011;68178;52.188;5.598;2023-04-01T14:57:57;8.18;;;7.38;;
19137;SDS011;68178;52.188;5.598;2023-04-01T15:00:24;7.75;;;6.95;;
19137;SDS011;68178;52.188;5.598;2023-04-01T15:03:07;7.38;;;6.72;;
19137;SDS011;68178;52.188;5.598;2023-04-01T15:05:50;8.05;;;7.22;;
19137;SDS011;68178;52.188;5.598;2023-04-01T15:10:53;7.13;;;6.43;;
19137;SDS011;68178;52.188;5.598;2023-04-01T15:21:25;6.22;;;5.50;;
19137;SDS011;68178;52.188;5.598;2023-04-01T15:29:15;7.20;;;6.50;;
19137;SDS011;68178;52.188;5.598;2023-04-01T15:39:09;8.18;;;6.03;;
19137;SDS011;68178;52.188;5.598;2023-04-01T15:41:43;6.57;;;5.97;;
19137;SDS011;68178;52.188;5.598;2023-04-01T15:46:55;6.85;;;5.82;;
19137;SDS011;68178;52.188;5.598;2023-04-01T15:49:39;6.80;;;6.10;;
19137;SDS011;68178;52.188;5.598;2023-04-01T15:52:24;7.68;;;6.53;;
19137;SDS011;68178;52.188;5.598;2023-04-01T15:57:46;7.22;;;6.53;;
19137;SDS011;68178;52.188;5.598;2023-04-01T16:03:29;8.27;;;6.93;;
19137;SDS011;68178;52.188;5.598;2023-04-01T16:13:51;9.13;;;8.23;;
19137;SDS011;68178;52.188;5.598;2023-04-01T16:16:23;9.75;;;7.50;;
19137;SDS011;68178;52.188;5.598;2023-04-01T16:26:57;10.63;;;8.63;;
19137;SDS011;68178;52.188;5.598;2023-04-01T16:29:38;10.05;;;9.02;;
19137;SDS011;68178;52.188;5.598;2023-04-01T16:32:23;8.68;;;7.88;;
19137;SDS011;68178;52.188;5.598;2023-04-01T16:37:39;9.13;;;8.30;;
19137;SDS011;68178;52.188;5.598;2023-04-01T16:45:53;9.38;;;8.38;;
19137;SDS011;68178;52.188;5.598;2023-04-01T16:48:25;10.60;;;9.05;;
19137;SDS011;68178;52.188;5.598;2023-04-01T16:51:04;11.45;;;8.05;;
19137;SDS011;68178;52.188;5.598;2023-04-01T16:58:32;9.10;;;8.20;;
19137;SDS011;68178;52.188;5.598;2023-04-01T17:01:02;9.52;;;8.63;;
19137;SDS011;68178;52.188;5.598;2023-04-01T17:03:32;9.75;;;8.77;;
19137;SDS011;68178;52.188;5.598;2023-04-01T17:11:14;10.32;;;9.05;;
19137;SDS011;68178;52.188;5.598;2023-04-01T17:13:50;10.38;;;8.98;;
19137;SDS011;68178;52.188;5.598;2023-04-01T17:17:03;9.57;;;8.02;;
19137;SDS011;68178;52.188;5.598;2023-04-01T17:19:23;10.18;;;8.90;;
19137;SDS011;68178;52.188;5.598;2023-04-01T17:22:33;9.20;;;8.23;;
19137;SDS011;68178;52.188;5.598;2023-04-01T17:24:45;9.75;;;8.23;;
19137;SDS011;68178;52.188;5.598;2023-04-01T17:30:06;8.80;;;7.90;;
19137;SDS011;68178;52.188;5.598;2023-04-01T17:32:54;11.00;;;9.85;;
19137;SDS011;68178;52.188;5.598;2023-04-01T17:35:28;9.75;;;8.75;;
19137;SDS011;68178;52.188;5.598;2023-04-01T17:48:29;12.45;;;8.25;;
19137;SDS011;68178;52.188;5.598;2023-04-01T17:51:03;9.60;;;7.80;;
19137;SDS011;68178;52.188;5.598;2023-04-01T17:56:17;9.63;;;8.68;;
19137;SDS011;68178;52.188;5.598;2023-04-01T18:06:26;9.40;;;8.50;;
19137;SDS011;68178;52.188;5.598;2023-04-01T18:09:18;9.00;;;8.10;;
19137;SDS011;68178;52.188;5.598;2023-04-01T18:19:48;10.77;;;9.15;;
19137;SDS011;68178;52.188;5.598;2023-04-01T18:22:24;9.98;;;9.00;;
19137;SDS011;68178;52.188;5.598;2023-04-01T18:30:20;9.95;;;9.05;;
19137;SDS011;68178;52.188;5.598;2023-04-01T18:32:51;15.93;;;13.70;;
19137;SDS011;68178;52.188;5.598;2023-04-01T18:42:41;9.90;;;8.90;;
19137;SDS011;68178;52.188;5.598;2023-04-01T18:50:18;12.07;;;10.48;;
19137;SDS011;68178;52.188;5.598;2023-04-01T18:52:47;11.55;;;10.30;;
19137;SDS011;68178;52.188;5.598;2023-04-01T18:57:51;11.10;;;10.02;;
19137;SDS011;68178;52.188;5.598;2023-04-01T19:00:49;10.38;;;9.48;;
19137;SDS011;68178;52.188;5.598;2023-04-01T19:06:17;9.30;;;8.40;;
19137;SDS011;68178;52.188;5.598;2023-04-01T19:08:43;9.63;;;8.63;;
19137;SDS011;68178;52.188;5.598;2023-04-01T19:11:13;11.65;;;10.50;;
19137;SDS011;68178;52.188;5.598;2023-04-01T19:21:16;15.35;;;13.75;;
19137;SDS011;68178;52.188;5.598;2023-04-01T19:29:04;19.33;;;17.08;;
19137;SDS011;68178;52.188;5.598;2023-04-01T19:34:26;11.23;;;10.13;;
19137;SDS011;68178;52.188;5.598;2023-04-01T19:40:32;9.73;;;8.73;;
19137;SDS011;68178;52.188;5.598;2023-04-01T19:42:43;9.50;;;8.40;;
19137;SDS011;68178;52.188;5.598;2023-04-01T19:50:37;10.60;;;9.60;;
19137;SDS011;68178;52.188;5.598;2023-04-01T19:53:13;12.52;;;11.23;;
19137;SDS011;68178;52.188;5.598;2023-04-01T19:55:46;12.32;;;10.95;;
19137;SDS011;68178;52.188;5.598;2023-04-01T19:58:19;11.77;;;10.57;;
19137;SDS011;68178;52.188;5.598;2023-04-01T20:00:52;12.90;;;11.50;;
19137;SDS011;68178;52.188;5.598;2023-04-01T20:11:14;15.55;;;13.95;;
19137;SDS011;68178;52.188;5.598;2023-04-01T20:13:47;15.40;;;13.55;;
19137;SDS011;68178;52.188;5.598;2023-04-01T20:16:14;21.80;;;17.02;;
19137;SDS011;68178;52.188;5.598;2023-04-01T20:18:45;28.52;;;19.15;;
19137;SDS011;68178;52.188;5.598;2023-04-01T20:26:25;26.02;;;20.48;;
19137;SDS011;68178;52.188;5.598;2023-04-01T20:31:28;30.13;;;21.25;;
19137;SDS011;68178;52.188;5.598;2023-04-01T20:36:26;22.08;;;17.02;;
19137;SDS011;68178;52.188;5.598;2023-04-01T20:41:53;26.92;;;19.95;;
19137;SDS011;68178;52.188;5.598;2023-04-01T20:46:48;16.73;;;14.25;;
19137;SDS011;68178;52.188;5.598;2023-04-01T20:49:34;16.63;;;14.93;;
19137;SDS011;68178;52.188;5.598;2023-04-01T20:52:17;15.40;;;13.80;;
19137;SDS011;68178;52.188;5.598;2023-04-01T20:57:14;16.70;;;13.98;;
19137;SDS011;68178;52.188;5.598;2023-04-01T21:02:32;16.10;;;14.32;;
19137;SDS011;68178;52.188;5.598;2023-04-01T21:12:48;16.50;;;13.38;;
19137;SDS011;68178;52.188;5.598;2023-04-01T21:18:09;14.63;;;10.60;;
19137;SDS011;68178;52.188;5.598;2023-04-01T21:21:02;13.55;;;11.38;;
19137;SDS011;68178;52.188;5.598;2023-04-01T21:31:13;18.52;;;13.35;;
19137;SDS011;68178;52.188;5.598;2023-04-01T21:33:48;16.20;;;12.65;;
19137;SDS011;68178;52.188;5.598;2023-04-01T21:36:31;14.45;;;12.18;;
19137;SDS011;68178;52.188;5.598;2023-04-01T21:46:48;18.90;;;14.60;;
19137;SDS011;68178;52.188;5.598;2023-04-01T21:49:40;16.45;;;13.82;;
19137;SDS011;68178;52.188;5.598;2023-04-01T21:52:29;15.35;;;13.68;;
19137;SDS011;68178;52.188;5.598;2023-04-01T22:05:10;14.45;;;12.95;;
19137;SDS011;68178;52.188;5.598;2023-04-01T22:12:44;16.48;;;14.55;;
19137;SDS011;68178;52.188;5.598;2023-04-01T22:17:41;16.75;;;14.45;;
19137;SDS011;68178;52.188;5.598;2023-04-01T22:20:19;16.25;;;14.43;;
19137;SDS011;68178;52.188;5.598;2023-04-01T22:28:16;15.63;;;14.00;;
19137;SDS011;68178;52.188;5.598;2023-04-01T22:30:47;17.52;;;14.07;;
19137;SDS011;68178;52.188;5.598;2023-04-01T22:33:22;15.15;;;13.55;;
19137;SDS011;68178;52.188;5.598;2023-04-01T22:41:13;21.40;;;15.73;;
19137;SDS011;68178;52.188;5.598;2023-04-01T22:43:47;17.73;;;14.93;;
19137;SDS011;68178;52.188;5.598;2023-04-01T22:48:54;16.88;;;15.05;;
19137;SDS011;68178;52.188;5.598;2023-04-01T22:51:24;17.95;;;15.02;;
19137;SDS011;68178;52.188;5.598;2023-04-01T22:56:57;17.75;;;13.90;;
19137;SDS011;68178;52.188;5.598;2023-04-01T23:01:59;16.90;;;14.32;;
19137;SDS011;68178;52.188;5.598;2023-04-01T23:04:31;20.48;;;14.85;;
19137;SDS011;68178;52.188;5.598;2023-04-01T23:06:59;17.58;;;14.77;;
19137;SDS011;68178;52.188;5.598;2023-04-01T23:09:33;18.63;;;14.90;;
19137;SDS011;68178;52.188;5.598;2023-04-01T23:14:34;16.70;;;14.50;;
19137;SDS011;68178;52.188;5.598;2023-04-01T23:19:48;16.85;;;14.95;;
19137;SDS011;68178;52.188;5.598;2023-04-01T23:24:46;16.58;;;13.75;;
19137;SDS011;68178;52.188;5.598;2023-04-01T23:29:53;18.83;;;14.48;;
19137;SDS011;68178;52.188;5.598;2023-04-01T23:32:22;18.38;;;14.70;;
19137;SDS011;68178;52.188;5.598;2023-04-01T23:34:51;20.08;;;16.30;;
19137;SDS011;68178;52.188;5.598;2023-04-01T23:37:18;19.27;;;16.30;;
19137;SDS011;68178;52.188;5.598;2023-04-01T23:39:54;19.90;;;15.15;;
19137;SDS011;68178;52.188;5.598;2023-04-01T23:42:23;24.30;;;17.85;;
19137;SDS011;68178;52.188;5.598;2023-04-01T23:44:51;22.58;;;18.00;;
19137;SDS011;68178;52.188;5.598;2023-04-01T23:49:55;24.17;;;17.98;;
19137;SDS011;68178;52.188;5.598;2023-04-01T23:52:35;20.58;;;17.38;;
19137;SDS011;68178;52.188;5.598;2023-04-01T23:55:24;22.52;;;16.95;;
